Time;durP1;ratioP1;P1;durP2;ratioP2;P2;SDS_P1;SDS_P2;PMS_P1;PMS_P2;Temp;Humidity;BMP_temperature;BMP_pressure;BME280_temperature;BME280_humidity;BME280_pressure;Samples;Min_cycle;Max_cycle;Signal;HPM_P1;HPM_P2
2022/11/03 00:01:39;;;;;;;9.60;4.10;;;7.50;1.00;;;;;;4924664;29;20434;-46
2022/11/03 00:04:07;;;;;;;7.93;3.47;;;7.50;1.00;;;;;;4928730;29;20509;-46
2022/11/03 00:06:33;;;;;;;12.90;4.40;;;7.50;31.30;;;;;;4927801;29;20456;-47
2022/11/03 00:09:02;;;;;;;9.70;4.17;;;7.50;99.90;;;;;;4924939;29;20446;-47
2022/11/03 00:11:27;;;;;;;11.73;4.30;;;7.50;99.90;;;;;;4924552;29;20854;-46
2022/11/03 00:13:53;;;;;;;9.90;4.33;;;7.40;99.90;;;;;;4924745;29;20450;-47
2022/11/03 00:16:19;;;;;;;9.67;4.07;;;7.40;99.90;;;;;;4930386;29;20229;-47
2022/11/03 00:18:45;;;;;;;6.77;3.80;;;7.40;99.90;;;;;;4921399;29;20472;-46
2022/11/03 00:21:12;;;;;;;11.87;4.30;;;7.40;99.90;;;;;;4927221;29;20438;-47
2022/11/03 00:23:40;;;;;;;17.97;4.03;;;7.30;99.90;;;;;;4925791;29;20258;-47
2022/11/03 00:26:14;;;;;;;9.70;4.50;;;7.30;99.90;;;;;;4925634;29;20438;-47
2022/11/03 00:28:42;;;;;;;8.27;4.00;;;7.30;99.90;;;;;;4922630;29;20442;-46
2022/11/03 00:31:10;;;;;;;17.60;4.10;;;7.20;99.90;;;;;;4927538;29;20445;-55
2022/11/03 00:33:37;;;;;;;10.53;4.20;;;7.20;99.90;;;;;;4923560;29;20446;-46
2022/11/03 00:36:04;;;;;;;10.00;3.83;;;7.30;99.90;;;;;;4926417;29;20818;-46
2022/11/03 00:38:30;;;;;;;7.90;3.90;;;7.30;99.90;;;;;;4924220;29;20437;-47
2022/11/03 00:40:57;;;;;;;7.43;3.77;;;7.20;99.90;;;;;;4931398;29;20861;-46
2022/11/03 00:43:24;;;;;;;13.20;4.20;;;7.20;99.90;;;;;;4920812;29;20195;-46
2022/11/03 00:45:51;;;;;;;13.20;3.97;;;7.20;99.90;;;;;;4923119;29;20441;-47
2022/11/03 00:48:29;;;;;;;13.10;4.30;;;7.20;99.90;;;;;;4918707;29;20486;-46
2022/11/03 00:51:01;;;;;;;7.17;4.10;;;7.30;99.90;;;;;;4919522;29;22345;-45
2022/11/03 00:53:27;;;;;;;11.17;3.87;;;7.30;99.90;;;;;;4930559;29;20442;-46
2022/11/03 00:55:53;;;;;;;13.80;4.10;;;7.40;99.90;;;;;;4928105;29;20490;-46
2022/11/03 00:58:19;;;;;;;10.47;4.43;;;7.40;99.90;;;;;;4919144;29;20806;-46
2022/11/03 01:00:44;;;;;;;11.67;4.67;;;7.40;99.90;;;;;;4918157;29;20202;-46
2022/11/03 01:03:10;;;;;;;8.20;3.63;;;7.50;99.90;;;;;;4929471;29;20196;-46
2022/11/03 01:08:34;;;;;;;9.60;4.00;;;7.50;99.90;;;;;;4928668;29;20336;-46
2022/11/03 01:14:01;;;;;;;12.27;3.67;;;7.60;1.00;;;;;;4924206;29;20854;-46
2022/11/03 01:16:27;;;;;;;8.97;3.80;;;7.60;1.00;;;;;;4917966;29;20486;-46
2022/11/03 01:18:54;;;;;;;13.93;3.87;;;7.60;1.00;;;;;;4917196;29;20198;-47
2022/11/03 01:21:20;;;;;;;8.70;3.50;;;7.70;1.00;;;;;;4917320;29;20976;-46
2022/11/03 01:23:45;;;;;;;11.30;3.90;;;7.70;1.00;;;;;;4915544;29;20446;-45
2022/11/03 01:26:12;;;;;;;14.83;4.27;;;7.70;1.00;;;;;;4914464;29;20213;-46
2022/11/03 01:28:40;;;;;;;11.13;3.87;;;7.80;1.00;;;;;;4916067;29;20333;-45
2022/11/03 01:31:11;;;;;;;13.70;3.80;;;7.90;1.00;;;;;;4917212;29;20451;-46
2022/11/03 01:33:37;;;;;;;10.70;3.20;;;7.90;99.90;;;;;;4916581;29;20956;-46
2022/11/03 01:36:03;;;;;;;8.03;3.27;;;7.80;99.90;;;;;;4918002;29;20487;-44
2022/11/03 01:38:33;;;;;;;8.93;3.73;;;7.90;99.90;;;;;;4915518;29;20976;-46
2022/11/03 01:41:00;;;;;;;11.97;4.67;;;8.00;99.90;;;;;;4916137;29;20222;-45
2022/11/03 01:43:27;;;;;;;8.80;3.60;;;7.90;99.90;;;;;;4915134;29;20441;-46
2022/11/03 01:46:11;;;;;;;13.60;3.20;;;7.90;99.90;;;;;;4917019;29;20481;-46
2022/11/03 01:48:41;;;;;;;7.37;3.10;;;7.90;99.90;;;;;;4921169;29;20493;-46
2022/11/03 01:51:10;;;;;;;7.70;3.80;;;8.00;99.90;;;;;;4915922;29;20469;-44
2022/11/03 01:53:41;;;;;;;11.50;3.90;;;8.10;99.90;;;;;;4915378;29;20858;-46
2022/11/03 01:56:07;;;;;;;8.40;3.10;;;8.10;99.90;;;;;;4915932;29;20482;-45
2022/11/03 01:58:37;;;;;;;9.63;3.60;;;8.10;99.90;;;;;;4916755;29;21017;-45
2022/11/03 02:01:03;;;;;;;12.17;3.87;;;8.10;99.90;;;;;;4918602;29;20473;-44
2022/11/03 02:03:35;;;;;;;7.97;3.40;;;8.10;99.90;;;;;;4915436;29;20449;-45
2022/11/03 02:06:01;;;;;;;18.43;3.90;;;8.10;99.90;;;;;;4914290;29;20195;-44
2022/11/03 02:08:42;;;;;;;7.17;3.47;;;8.20;99.90;;;;;;4914455;29;20486;-44
2022/11/03 02:13:52;;;;;;;13.23;3.30;;;8.20;55.80;;;;;;4921998;29;20556;-45
2022/11/03 02:16:20;;;;;;;12.43;3.90;;;8.20;43.70;;;;;;4917333;29;20474;-51
2022/11/03 02:18:48;;;;;;;7.77;3.77;;;8.20;48.20;;;;;;4913143;29;20191;-45
2022/11/03 02:21:40;;;;;;;10.97;3.40;;;8.20;38.20;;;;;;4927610;29;20481;-45
2022/11/03 02:24:23;;;;;;;8.87;3.37;;;8.20;29.80;;;;;;4933763;29;20457;-46
2022/11/03 02:26:52;;;;;;;9.43;3.60;;;8.10;39.20;;;;;;4938318;29;20467;-45
2022/11/03 02:29:18;;;;;;;7.37;3.60;;;8.10;72.20;;;;;;4929427;29;20593;-46
2022/11/03 02:31:49;;;;;;;8.60;3.40;;;8.00;99.90;;;;;;4927404;29;20521;-45
2022/11/03 02:34:21;;;;;;;8.20;3.33;;;8.00;99.90;;;;;;4930937;29;20213;-46
2022/11/03 02:37:02;;;;;;;7.67;3.47;;;8.00;99.90;;;;;;4926404;29;20481;-45
2022/11/03 02:39:37;;;;;;;7.00;3.00;;;7.90;99.90;;;;;;4932632;29;20493;-45
2022/11/03 02:42:04;;;;;;;11.80;3.43;;;8.00;99.90;;;;;;4926623;29;20476;-45
2022/11/03 02:44:32;;;;;;;15.37;3.67;;;8.00;99.90;;;;;;4929732;29;20442;-46
2022/11/03 02:47:02;;;;;;;5.60;2.63;;;8.00;99.90;;;;;;4927681;29;20461;-45
2022/11/03 02:49:28;;;;;;;8.53;3.13;;;8.10;99.90;;;;;;4930904;29;20461;-45
2022/11/03 02:52:01;;;;;;;7.10;3.00;;;8.10;99.90;;;;;;4928018;29;20988;-45
2022/11/03 02:54:37;;;;;;;6.23;2.90;;;8.20;99.90;;;;;;4932136;29;20478;-44
2022/11/03 02:57:18;;;;;;;6.00;3.00;;;8.30;99.90;;;;;;4932211;29;20489;-45
2022/11/03 02:59:58;;;;;;;10.83;3.57;;;8.30;99.90;;;;;;4929710;29;20861;-45
2022/11/03 03:02:34;;;;;;;7.70;3.10;;;8.30;96.90;;;;;;4929976;29;21214;-46
2022/11/03 03:05:02;;;;;;;9.30;2.93;;;8.40;91.20;;;;;;4930701;29;20433;-45
2022/11/03 03:07:35;;;;;;;12.37;4.07;;;8.30;72.10;;;;;;4930786;29;20450;-45
2022/11/03 03:10:01;;;;;;;7.90;3.10;;;8.20;99.90;;;;;;4928204;29;20454;-45
2022/11/03 03:12:27;;;;;;;9.93;3.07;;;8.20;99.90;;;;;;4931262;29;20457;-45
2022/11/03 03:14:55;;;;;;;5.83;3.13;;;8.20;99.90;;;;;;4927601;29;20182;-45
2022/11/03 03:17:51;;;;;;;9.50;3.60;;;8.10;99.90;;;;;;4929326;29;20449;-45
2022/11/03 03:20:25;;;;;;;6.17;2.83;;;8.00;99.90;;;;;;4929383;29;20441;-45
2022/11/03 03:23:03;;;;;;;15.33;3.10;;;8.00;99.90;;;;;;4927040;29;20434;-45
2022/11/03 03:25:37;;;;;;;13.00;3.23;;;8.00;99.90;;;;;;4929907;29;20450;-45
2022/11/03 03:28:12;;;;;;;5.87;2.77;;;8.00;99.90;;;;;;4926199;29;20545;-44
2022/11/03 03:30:41;;;;;;;9.00;3.00;;;8.00;99.90;;;;;;4927963;29;20936;-45
2022/11/03 03:33:07;;;;;;;11.80;3.57;;;8.10;99.90;;;;;;4930456;29;20460;-46
2022/11/03 03:35:36;;;;;;;7.90;2.63;;;8.10;99.90;;;;;;4931746;29;20975;-45
2022/11/03 03:38:06;;;;;;;11.30;3.03;;;8.10;99.90;;;;;;4926110;29;20513;-45
2022/11/03 03:40:36;;;;;;;13.07;3.67;;;8.10;99.90;;;;;;4931661;29;20913;-45
2022/11/03 03:43:04;;;;;;;11.17;2.67;;;8.10;99.90;;;;;;4928949;28;20450;-45
2022/11/03 03:45:31;;;;;;;3.87;2.47;;;8.10;99.90;;;;;;4927472;29;20465;-45
2022/11/03 03:47:57;;;;;;;14.07;2.47;;;8.00;99.90;;;;;;4931694;29;20490;-45
2022/11/03 03:50:25;;;;;;;12.13;3.47;;;7.90;99.90;;;;;;4929699;29;20449;-45
2022/11/03 03:52:56;;;;;;;13.40;2.83;;;7.90;99.90;;;;;;4930450;29;20953;-44
2022/11/03 03:55:32;;;;;;;16.17;3.30;;;7.90;99.90;;;;;;4930626;29;20960;-45
2022/11/03 03:57:58;;;;;;;5.57;2.90;;;7.90;99.90;;;;;;4932565;29;20513;-44
2022/11/03 04:00:23;;;;;;;10.57;2.80;;;7.80;99.90;;;;;;4929772;29;20561;-45
2022/11/03 04:02:49;;;;;;;10.37;2.40;;;7.80;99.90;;;;;;4927975;29;20656;-50
2022/11/03 04:05:14;;;;;;;8.20;2.93;;;7.70;99.90;;;;;;4930794;29;20913;-48
2022/11/03 04:07:46;;;;;;;8.57;2.97;;;7.70;99.90;;;;;;4927564;29;20202;-45
2022/11/03 04:10:12;;;;;;;6.53;2.53;;;7.60;1.00;;;;;;4930474;29;20191;-45
2022/11/03 04:23:37;;;;;;;12.23;3.07;;;7.60;1.00;;;;;;4923862;29;20446;-45
2022/11/03 04:26:09;;;;;;;9.50;2.80;;;7.70;1.00;;;;;;4926824;29;20446;-45
2022/11/03 04:28:35;;;;;;;10.63;2.90;;;7.70;1.00;;;;;;4925284;29;20250;-45
2022/11/03 04:31:00;;;;;;;12.60;2.87;;;7.70;1.00;;;;;;4924575;29;20451;-45
2022/11/03 04:33:28;;;;;;;10.40;2.90;;;7.70;1.00;;;;;;4925869;29;20205;-45
2022/11/03 04:35:57;;;;;;;12.03;3.07;;;7.80;1.00;;;;;;4927315;28;20214;-45
2022/11/03 04:38:26;;;;;;;9.90;3.20;;;7.70;1.00;;;;;;4927785;29;20446;-45
2022/11/03 04:40:54;;;;;;;16.20;2.87;;;7.70;1.00;;;;;;4931098;29;20473;-45
2022/11/03 04:43:22;;;;;;;9.83;3.13;;;7.70;1.00;;;;;;4925429;29;20442;-45
2022/11/03 04:45:49;;;;;;;8.00;2.20;;;7.80;1.00;;;;;;4927707;29;20943;-44
2022/11/03 04:48:21;;;;;;;12.43;2.90;;;7.80;1.00;;;;;;4929144;29;20529;-45
2022/11/03 04:50:48;;;;;;;11.90;2.63;;;7.80;1.00;;;;;;4931050;29;20517;-45
2022/11/03 04:53:18;;;;;;;7.87;3.17;;;7.80;1.00;;;;;;4931685;29;20463;-45
2022/11/03 04:55:45;;;;;;;7.57;2.53;;;7.90;1.00;;;;;;4931465;29;20474;-45
2022/11/03 04:58:33;;;;;;;7.40;2.33;;;7.90;1.00;;;;;;4928822;29;20456;-45
2022/11/03 05:01:01;;;;;;;9.57;2.83;;;8.00;1.00;;;;;;4927158;29;20540;-45
2022/11/03 05:03:31;;;;;;;6.50;2.70;;;8.00;1.00;;;;;;4927532;29;20446;-45
2022/11/03 05:05:57;;;;;;;10.60;3.10;;;8.00;1.00;;;;;;4924695;29;20470;-46
2022/11/03 05:08:23;;;;;;;7.10;2.90;;;8.00;1.00;;;;;;4928164;29;20537;-46
2022/11/03 05:10:49;;;;;;;9.47;2.70;;;7.90;1.00;;;;;;4927108;29;20454;-46
2022/11/03 05:13:23;;;;;;;16.93;3.20;;;7.80;1.00;;;;;;4917820;29;20516;-46
2022/11/03 05:15:50;;;;;;;9.40;3.27;;;7.90;1.00;;;;;;4929305;29;20491;-46
2022/11/03 05:18:20;;;;;;;6.33;2.60;;;7.90;1.00;;;;;;4930660;29;20442;-46
2022/11/03 05:20:57;;;;;;;6.70;2.57;;;8.00;1.00;;;;;;4930371;29;20592;-46
2022/11/03 05:23:24;;;;;;;12.73;3.27;;;8.00;1.00;;;;;;4925870;29;21099;-47
2022/11/03 05:25:52;;;;;;;8.83;3.17;;;8.10;1.00;;;;;;4925472;29;20999;-46
2022/11/03 05:28:38;;;;;;;6.43;2.40;;;8.10;1.00;;;;;;4924841;29;20485;-47
2022/11/03 05:31:23;;;;;;;8.73;2.37;;;8.00;1.00;;;;;;4926318;29;20446;-46
2022/11/03 05:33:52;;;;;;;10.50;2.97;;;8.00;1.00;;;;;;4927976;29;20499;-45
2022/11/03 05:36:23;;;;;;;11.13;2.73;;;8.00;1.00;;;;;;4928039;29;20496;-46
2022/11/03 05:38:52;;;;;;;10.33;4.10;;;8.00;1.00;;;;;;4926733;29;21092;-46
2022/11/03 05:41:25;;;;;;;14.37;3.07;;;7.90;1.00;;;;;;4929414;29;20556;-45
2022/11/03 05:44:01;;;;;;;9.77;2.67;;;7.90;1.00;;;;;;4926151;28;20960;-46
2022/11/03 05:46:30;;;;;;;10.33;2.80;;;7.90;1.00;;;;;;4925664;29;20449;-45
2022/11/03 05:48:57;;;;;;;11.30;3.13;;;7.90;1.00;;;;;;4926187;29;20956;-45
2022/11/03 05:51:44;;;;;;;14.33;3.03;;;7.90;1.00;;;;;;4925918;29;20973;-46
2022/11/03 05:54:27;;;;;;;7.70;2.57;;;7.90;1.00;;;;;;4927053;29;20553;-45
2022/11/03 05:56:54;;;;;;;7.20;2.10;;;8.00;1.00;;;;;;4924395;29;20488;-46
2022/11/03 05:59:24;;;;;;;13.47;3.03;;;7.90;1.00;;;;;;4928064;29;20478;-46
2022/11/03 06:01:52;;;;;;;11.47;3.10;;;7.90;1.00;;;;;;4927711;29;20449;-46
2022/11/03 06:04:18;;;;;;;11.20;3.17;;;7.90;1.00;;;;;;4924609;29;20491;-45
2022/11/03 06:06:52;;;;;;;8.70;3.40;;;7.80;1.00;;;;;;4922238;29;20445;-45
2022/11/03 06:09:21;;;;;;;5.93;2.63;;;7.90;3.90;;;;;;4928268;29;20449;-45
2022/11/03 06:11:50;;;;;;;6.30;2.90;;;7.90;1.00;;;;;;4928413;29;20477;-45
2022/11/03 06:14:24;;;;;;;7.80;2.37;;;7.80;86.30;;;;;;4926703;29;20952;-45
2022/11/03 06:17:00;;;;;;;6.80;2.60;;;7.80;99.90;;;;;;4924143;29;20461;-45
2022/11/03 06:19:30;;;;;;;10.03;3.60;;;7.80;99.90;;;;;;4926779;29;20438;-46
2022/11/03 06:22:30;;;;;;;7.43;3.00;;;7.90;99.90;;;;;;4925594;29;21278;-47
2022/11/03 06:25:00;;;;;;;8.23;2.80;;;7.90;99.90;;;;;;4927781;29;20577;-46
2022/11/03 06:27:29;;;;;;;10.07;3.00;;;7.90;99.90;;;;;;4928105;29;20462;-46
2022/11/03 06:30:01;;;;;;;10.67;3.47;;;8.00;99.90;;;;;;4926311;29;20449;-46
2022/11/03 06:32:27;;;;;;;7.60;2.60;;;8.00;99.90;;;;;;4924904;29;21049;-46
2022/11/03 06:34:57;;;;;;;8.00;2.23;;;8.00;99.90;;;;;;4924261;29;21306;-46
2022/11/03 06:37:31;;;;;;;19.00;3.50;;;8.00;99.90;;;;;;4927316;29;20448;-46
2022/11/03 06:40:23;;;;;;;13.27;3.60;;;8.00;99.90;;;;;;4927275;29;20444;-46
2022/11/03 06:42:48;;;;;;;11.03;4.13;;;8.10;99.90;;;;;;4922721;29;20446;-47
2022/11/03 06:45:19;;;;;;;13.60;3.17;;;8.20;99.90;;;;;;4928446;29;20446;-46
2022/11/03 06:47:46;;;;;;;8.53;3.27;;;8.30;82.70;;;;;;4923578;29;20270;-46
2022/11/03 06:50:28;;;;;;;5.60;3.00;;;8.30;1.00;;;;;;4925228;29;20434;-46
2022/11/03 06:52:55;;;;;;;13.13;3.20;;;8.30;1.00;;;;;;4924193;29;20450;-47
2022/11/03 06:55:28;;;;;;;7.60;3.00;;;8.30;1.00;;;;;;4927127;29;21071;-46
2022/11/03 06:58:18;;;;;;;7.33;3.23;;;8.40;1.00;;;;;;4927949;29;20489;-46
2022/11/03 07:00:44;;;;;;;8.27;3.00;;;8.40;1.00;;;;;;4925121;29;20513;-46
2022/11/03 07:03:29;;;;;;;14.20;3.50;;;8.50;1.00;;;;;;4924247;29;20928;-45
2022/11/03 07:06:14;;;;;;;13.40;3.13;;;8.50;1.00;;;;;;4924237;29;20853;-45
2022/11/03 07:08:42;;;;;;;23.03;3.47;;;8.60;1.00;;;;;;4928312;29;20445;-45
2022/11/03 07:11:23;;;;;;;13.97;3.23;;;8.60;1.00;;;;;;4925703;29;21066;-46
2022/11/03 07:13:52;;;;;;;14.83;3.13;;;8.70;1.00;;;;;;4931209;29;20803;-45
2022/11/03 07:16:38;;;;;;;10.20;3.40;;;8.80;1.00;;;;;;4928753;29;20466;-45
2022/11/03 07:19:12;;;;;;;9.37;4.30;;;8.90;99.90;;;;;;4930214;29;20851;-46
2022/11/03 07:21:45;;;;;;;10.30;3.67;;;8.90;99.90;;;;;;4932707;29;22090;-45
2022/11/03 07:24:22;;;;;;;7.03;2.37;;;9.00;99.90;;;;;;4927342;29;20530;-46
2022/11/03 07:27:05;;;;;;;9.87;3.43;;;9.00;99.90;;;;;;4930220;29;20442;-46
2022/11/03 07:29:31;;;;;;;8.33;3.57;;;9.00;99.90;;;;;;4925225;29;20828;-46
2022/11/03 07:31:59;;;;;;;14.43;3.40;;;9.00;99.90;;;;;;4929784;29;20528;-45
2022/11/03 07:34:31;;;;;;;12.13;3.33;;;9.00;99.90;;;;;;4926063;29;20197;-47
2022/11/03 07:36:57;;;;;;;11.67;3.10;;;9.00;99.90;;;;;;4929702;29;20466;-46
2022/11/03 07:39:25;;;;;;;12.60;3.23;;;9.10;99.90;;;;;;4914849;29;20445;-45
2022/11/03 07:41:50;;;;;;;8.10;2.90;;;9.20;99.90;;;;;;4930938;29;20449;-46
2022/11/03 07:44:22;;;;;;;6.63;3.13;;;9.30;99.90;;;;;;4927746;29;20450;-46
2022/11/03 07:46:49;;;;;;;6.47;3.13;;;9.30;99.90;;;;;;4932894;29;20246;-45
2022/11/03 07:49:28;;;;;;;13.00;3.13;;;9.30;99.90;;;;;;4928389;29;20504;-45
2022/11/03 07:51:56;;;;;;;9.97;3.10;;;9.40;99.90;;;;;;4926015;29;20442;-46
2022/11/03 07:54:27;;;;;;;8.80;2.70;;;9.40;99.90;;;;;;4932406;29;21051;-45
2022/11/03 07:56:58;;;;;;;9.17;2.80;;;9.50;99.90;;;;;;4928150;29;20551;-47
2022/11/03 07:59:32;;;;;;;10.73;2.97;;;9.50;98.90;;;;;;4924713;29;20443;-46
2022/11/03 08:01:59;;;;;;;7.97;3.03;;;9.60;90.70;;;;;;4928493;29;20777;-46
2022/11/03 08:04:27;;;;;;;8.43;3.10;;;9.70;54.50;;;;;;4926205;29;20512;-46
2022/11/03 08:06:53;;;;;;;17.60;3.00;;;9.70;37.20;;;;;;4933526;29;20442;-46
2022/11/03 08:09:20;;;;;;;11.00;3.00;;;9.80;34.50;;;;;;4927386;29;20449;-46
2022/11/03 08:11:46;;;;;;;12.70;3.10;;;9.90;17.30;;;;;;4928957;29;20198;-46
2022/11/03 08:14:12;;;;;;;8.40;3.00;;;9.90;1.00;;;;;;4928980;29;20816;-46
2022/11/03 08:16:38;;;;;;;10.33;2.90;;;10.00;1.00;;;;;;4929688;29;20473;-46
2022/11/03 08:19:04;;;;;;;15.83;3.10;;;10.00;1.00;;;;;;4927494;29;20438;-46
2022/11/03 08:21:29;;;;;;;15.37;3.60;;;10.10;1.00;;;;;;4929272;29;20190;-45
2022/11/03 08:23:55;;;;;;;8.73;2.80;;;10.10;1.00;;;;;;4930384;29;20434;-46
2022/11/03 08:26:20;;;;;;;10.90;3.37;;;10.20;1.00;;;;;;4931717;29;20205;-45
2022/11/03 08:28:46;;;;;;;8.93;2.70;;;10.30;1.00;;;;;;4931170;29;20193;-45
2022/11/03 08:31:12;;;;;;;10.43;2.87;;;10.40;1.00;;;;;;4929873;29;20257;-45
2022/11/03 08:33:38;;;;;;;10.90;3.07;;;10.50;1.00;;;;;;4928758;29;20537;-45
2022/11/03 08:36:04;;;;;;;9.37;2.77;;;10.60;1.00;;;;;;4928031;29;20246;-45
2022/11/03 08:38:30;;;;;;;6.57;2.70;;;10.60;1.00;;;;;;4927576;29;20198;-44
2022/11/03 08:40:59;;;;;;;12.00;3.30;;;10.70;1.00;;;;;;4929941;29;20430;-45
2022/11/03 08:43:25;;;;;;;12.90;2.80;;;10.70;1.00;;;;;;4931509;29;20277;-45
2022/11/03 08:45:52;;;;;;;13.37;3.50;;;10.80;1.00;;;;;;4927849;29;20525;-46
2022/11/03 08:48:22;;;;;;;15.13;3.20;;;10.80;1.00;;;;;;4928818;29;20584;-46
2022/11/03 08:50:49;;;;;;;12.50;3.10;;;10.90;1.00;;;;;;4928640;29;20577;-46
2022/11/03 08:53:15;;;;;;;9.50;3.13;;;10.90;1.00;;;;;;4929192;29;20450;-46
2022/11/03 08:55:41;;;;;;;8.40;2.80;;;11.00;1.00;;;;;;4925952;29;20481;-46
2022/11/03 08:58:07;;;;;;;11.80;3.17;;;10.90;1.00;;;;;;4926415;29;20441;-46
2022/11/03 09:00:35;;;;;;;4.53;2.50;;;10.90;1.00;;;;;;4925718;29;20215;-46
2022/11/03 09:03:00;;;;;;;6.63;2.33;;;10.90;1.00;;;;;;4928196;29;20434;-46
2022/11/03 09:05:26;;;;;;;10.10;2.77;;;11.00;1.00;;;;;;4929640;29;20932;-46
2022/11/03 09:07:51;;;;;;;11.67;2.90;;;11.10;1.00;;;;;;4925518;29;20198;-45
2022/11/03 09:10:17;;;;;;;6.90;3.13;;;11.20;1.00;;;;;;4929167;29;20199;-46
2022/11/03 09:12:43;;;;;;;8.90;3.20;;;11.30;1.00;;;;;;4928369;29;20187;-46
2022/11/03 09:15:09;;;;;;;12.53;2.93;;;11.40;1.00;;;;;;4930112;29;20198;-46
2022/11/03 09:17:34;;;;;;;9.77;3.13;;;11.50;1.00;;;;;;4925546;29;20237;-45
2022/11/03 09:20:00;;;;;;;11.43;2.67;;;11.50;1.00;;;;;;4929070;29;20942;-46
2022/11/03 09:22:25;;;;;;;8.60;3.30;;;11.50;1.00;;;;;;4928354;29;20222;-46
2022/11/03 09:24:51;;;;;;;10.50;3.03;;;11.60;1.00;;;;;;4928235;29;20755;-45
2022/11/03 09:27:17;;;;;;;14.83;3.00;;;11.80;1.00;;;;;;4925326;29;21121;-46
2022/11/03 09:29:42;;;;;;;9.77;2.93;;;11.80;1.00;;;;;;4927665;29;20190;-45
2022/11/03 09:32:08;;;;;;;8.43;2.83;;;11.80;1.00;;;;;;4923748;29;20210;-46
2022/11/03 09:34:33;;;;;;;12.03;2.80;;;11.80;1.00;;;;;;4929238;29;20183;-46
2022/11/03 09:36:59;;;;;;;11.43;2.80;;;11.90;1.00;;;;;;4925732;29;20226;-46
2022/11/03 09:39:24;;;;;;;7.60;3.10;;;11.90;1.00;;;;;;4930370;29;20309;-47
2022/11/03 09:41:52;;;;;;;9.30;2.90;;;11.90;1.00;;;;;;4931105;29;20194;-46
2022/11/03 09:44:18;;;;;;;7.90;2.90;;;11.90;1.00;;;;;;4931894;29;20190;-46
2022/11/03 09:46:44;;;;;;;7.30;3.13;;;12.00;1.00;;;;;;4930899;29;20932;-45
2022/11/03 09:49:14;;;;;;;10.47;3.10;;;12.10;1.00;;;;;;4930779;29;20494;-46
2022/11/03 09:51:41;;;;;;;6.70;2.93;;;12.20;1.00;;;;;;4929215;29;20261;-45
2022/11/03 09:54:13;;;;;;;9.23;2.60;;;12.30;1.00;;;;;;4931503;29;20441;-46
2022/11/03 09:56:38;;;;;;;9.37;2.77;;;12.40;1.00;;;;;;4930718;29;20462;-44
2022/11/03 09:59:24;;;;;;;7.30;2.80;;;12.50;1.00;;;;;;4930060;29;20425;-46
2022/11/03 10:01:52;;;;;;;8.37;2.43;;;12.60;1.00;;;;;;4930549;29;20206;-46
2022/11/03 10:04:27;;;;;;;9.30;2.80;;;12.60;1.00;;;;;;4931261;29;20433;-46
2022/11/03 10:06:57;;;;;;;9.17;2.80;;;12.70;1.00;;;;;;4930752;29;20525;-46
2022/11/03 10:09:25;;;;;;;7.13;2.67;;;12.80;1.00;;;;;;4931253;29;20529;-46
2022/11/03 10:11:54;;;;;;;13.30;3.90;;;12.90;1.00;;;;;;4930842;29;20430;-46
2022/11/03 10:14:20;;;;;;;9.10;3.00;;;12.90;1.00;;;;;;4931608;29;20437;-45
2022/11/03 10:16:59;;;;;;;7.13;2.73;;;13.00;1.00;;;;;;4932257;29;20465;-45
2022/11/03 10:19:25;;;;;;;8.73;2.83;;;13.00;1.00;;;;;;4930877;29;20438;-45
2022/11/03 10:21:51;;;;;;;9.20;3.10;;;13.00;1.00;;;;;;4930390;29;20504;-45
2022/11/03 10:24:17;;;;;;;14.20;3.03;;;13.00;1.00;;;;;;4929712;29;20473;-46
2022/11/03 10:26:51;;;;;;;13.13;2.90;;;13.10;1.00;;;;;;4928531;29;20853;-46
2022/11/03 10:29:26;;;;;;;10.30;3.60;;;13.10;1.00;;;;;;4931041;29;20453;-46
2022/11/03 10:31:57;;;;;;;7.13;2.80;;;13.10;1.00;;;;;;4930139;29;20537;-46
2022/11/03 10:34:24;;;;;;;8.50;2.63;;;13.10;1.00;;;;;;4929982;29;20461;-46
2022/11/03 10:37:07;;;;;;;13.00;3.33;;;13.10;1.00;;;;;;4931887;29;20489;-45
2022/11/03 10:39:33;;;;;;;12.70;3.40;;;13.10;1.00;;;;;;4930098;29;20802;-45
2022/11/03 10:41:59;;;;;;;11.43;3.27;;;13.20;1.00;;;;;;4934930;29;20440;-46
2022/11/03 10:44:27;;;;;;;8.17;3.10;;;13.30;1.00;;;;;;4934228;29;20911;-45
2022/11/03 10:47:00;;;;;;;11.00;3.63;;;13.40;1.00;;;;;;4934609;29;20182;-45
2022/11/03 10:49:37;;;;;;;5.90;2.70;;;13.40;1.00;;;;;;4934191;29;20449;-46
2022/11/03 10:52:29;;;;;;;10.67;3.27;;;13.50;1.00;;;;;;4935083;29;21050;-47
2022/11/03 10:54:57;;;;;;;10.43;3.37;;;13.80;1.00;;;;;;4933794;29;20461;-46
2022/11/03 10:57:23;;;;;;;10.87;3.40;;;14.00;1.00;;;;;;4933611;29;20601;-45
2022/11/03 10:59:51;;;;;;;6.33;3.50;;;14.10;1.00;;;;;;4933044;29;20588;-46
2022/11/03 11:02:26;;;;;;;7.00;2.47;;;14.20;1.00;;;;;;4933100;29;20528;-46
2022/11/03 11:04:59;;;;;;;7.70;3.00;;;14.30;1.00;;;;;;4933284;29;20923;-45
2022/11/03 11:07:38;;;;;;;7.70;3.00;;;14.50;1.00;;;;;;4933020;29;21181;-45
2022/11/03 11:10:19;;;;;;;7.10;2.60;;;14.80;1.00;;;;;;4926312;29;20449;-45
2022/11/03 11:13:24;;;;;;;7.67;3.30;;;14.90;1.00;;;;;;4925584;29;20513;-44
2022/11/03 11:16:00;;;;;;;6.87;2.60;;;15.20;1.00;;;;;;4928147;29;20478;-43
2022/11/03 11:18:29;;;;;;;11.17;2.70;;;15.60;1.00;;;;;;4930548;29;20491;-45
2022/11/03 11:20:56;;;;;;;11.50;3.23;;;15.90;1.00;;;;;;4933053;29;20908;-46
2022/11/03 11:23:28;;;;;;;8.40;3.10;;;16.20;1.00;;;;;;4929950;29;20785;-44
2022/11/03 11:26:08;;;;;;;9.77;3.07;;;16.30;1.00;;;;;;4930786;29;20446;-44
2022/11/03 11:28:35;;;;;;;15.10;2.90;;;16.40;1.00;;;;;;4932404;29;20442;-44
2022/11/03 11:31:01;;;;;;;4.90;2.43;;;16.50;1.00;;;;;;4932573;29;20457;-44
2022/11/03 11:33:30;;;;;;;9.00;2.57;;;16.60;1.00;;;;;;4930028;29;20492;-43
2022/11/03 11:35:56;;;;;;;10.03;2.47;;;16.60;1.00;;;;;;4929843;29;20469;-43
2022/11/03 11:38:44;;;;;;;9.77;2.93;;;16.40;1.00;;;;;;4931778;29;20479;-43
2022/11/03 11:41:09;;;;;;;9.40;2.60;;;16.20;1.00;;;;;;4930209;29;20736;-44
2022/11/03 11:43:35;;;;;;;9.70;2.57;;;16.00;1.00;;;;;;4931091;29;20461;-44
2022/11/03 11:46:23;;;;;;;9.93;2.87;;;15.90;1.00;;;;;;4929487;29;20187;-44
2022/11/03 11:48:55;;;;;;;8.83;2.80;;;15.80;1.00;;;;;;4931477;29;20246;-44
2022/11/03 11:51:21;;;;;;;13.40;3.10;;;15.70;1.00;;;;;;4930099;29;20434;-44
2022/11/03 11:53:50;;;;;;;7.90;2.33;;;15.90;1.00;;;;;;4930965;29;20979;-43
2022/11/03 11:56:17;;;;;;;8.90;2.83;;;16.00;1.00;;;;;;4930184;29;20470;-44
2022/11/03 11:58:47;;;;;;;10.27;2.70;;;16.20;1.00;;;;;;4931413;29;20919;-44
2022/11/03 12:01:25;;;;;;;3.93;2.13;;;16.30;1.00;;;;;;4928273;29;20445;-44
2022/11/03 12:03:53;;;;;;;7.53;2.70;;;16.40;1.00;;;;;;4926417;29;20523;-44
2022/11/03 12:06:35;;;;;;;9.10;2.67;;;16.40;1.00;;;;;;4927986;29;20450;-44
2022/11/03 12:09:14;;;;;;;7.97;3.23;;;16.30;1.00;;;;;;4928224;29;20952;-45
2022/11/03 12:12:00;;;;;;;9.60;2.97;;;16.20;1.00;;;;;;4926692;29;20469;-45
2022/11/03 12:14:32;;;;;;;5.30;3.00;;;16.10;1.00;;;;;;4933378;29;20450;-45
2022/11/03 12:17:18;;;;;;;10.23;2.83;;;15.80;1.00;;;;;;4935407;29;20454;-45
2022/11/03 12:19:46;;;;;;;7.30;3.17;;;15.60;1.00;;;;;;4934735;29;20426;-45
2022/11/03 12:22:27;;;;;;;7.30;3.20;;;15.50;1.00;;;;;;4935399;29;20495;-44
2022/11/03 12:25:00;;;;;;;6.97;2.80;;;15.30;1.00;;;;;;4935493;29;20481;-44
2022/11/03 12:27:26;;;;;;;8.97;3.30;;;15.30;1.00;;;;;;4935252;29;20417;-44
2022/11/03 12:29:54;;;;;;;7.67;3.53;;;15.30;1.00;;;;;;4935249;29;20402;-44
2022/11/03 12:32:20;;;;;;;13.13;3.10;;;15.40;1.00;;;;;;4935117;29;20189;-44
2022/11/03 12:34:45;;;;;;;7.97;2.63;;;15.50;1.00;;;;;;4935191;29;20411;-44
2022/11/03 12:37:12;;;;;;;6.77;2.73;;;15.80;1.00;;;;;;4935039;29;20474;-44
2022/11/03 12:39:37;;;;;;;6.60;2.50;;;16.30;1.00;;;;;;4935025;29;20166;-45
2022/11/03 12:42:04;;;;;;;13.67;2.70;;;16.50;1.00;;;;;;4934987;29;20421;-45
2022/11/03 12:44:30;;;;;;;6.77;2.90;;;16.40;1.00;;;;;;4921229;29;20282;-44
2022/11/03 12:46:56;;;;;;;7.13;2.70;;;16.30;1.00;;;;;;4919167;29;20540;-45
2022/11/03 12:49:22;;;;;;;11.43;3.00;;;16.10;1.00;;;;;;4916269;29;20443;-44
2022/11/03 12:51:47;;;;;;;6.20;2.63;;;15.90;1.00;;;;;;4915994;29;20183;-44
2022/11/03 12:54:13;;;;;;;7.87;2.60;;;15.80;1.00;;;;;;4915840;29;20168;-44
2022/11/03 12:56:39;;;;;;;6.50;2.70;;;15.60;1.00;;;;;;4932790;29;20221;-45
2022/11/03 12:59:04;;;;;;;9.77;2.57;;;15.40;1.00;;;;;;4934773;29;20178;-44
2022/11/03 13:01:30;;;;;;;9.40;2.70;;;15.30;1.00;;;;;;4925128;29;20194;-45
2022/11/03 13:03:55;;;;;;;6.77;2.40;;;15.20;1.00;;;;;;4931287;29;20174;-45
2022/11/03 13:06:21;;;;;;;9.37;3.57;;;15.10;1.00;;;;;;4934531;29;20186;-45
2022/11/03 13:08:48;;;;;;;9.90;2.60;;;14.90;1.00;;;;;;4933916;29;20202;-45
2022/11/03 13:13:58;;;;;;;5.57;2.70;;;14.80;1.00;;;;;;4934446;29;20513;-44
2022/11/03 13:16:24;;;;;;;5.40;2.60;;;14.80;1.00;;;;;;4932925;29;20906;-44
2022/11/03 13:18:49;;;;;;;12.10;2.40;;;14.80;1.00;;;;;;4934266;29;20181;-44
2022/11/03 13:21:15;;;;;;;7.00;2.90;;;14.80;1.00;;;;;;4934194;29;20182;-45
2022/11/03 13:23:41;;;;;;;11.90;3.10;;;14.80;1.00;;;;;;4933118;29;20209;-44
2022/11/03 13:26:06;;;;;;;11.63;2.90;;;14.90;1.00;;;;;;4934786;29;20293;-44
2022/11/03 13:28:32;;;;;;;8.03;2.60;;;15.00;1.00;;;;;;4934233;29;20237;-45
2022/11/03 13:30:58;;;;;;;5.73;2.47;;;15.00;1.00;;;;;;4934214;29;20273;-44
2022/11/03 13:33:23;;;;;;;9.03;2.93;;;15.00;1.00;;;;;;4934281;29;20181;-45